createdAt,value
2022-10-06T00:00:06.682Z,14.54
2022-10-06T00:01:06.406Z,14.53
2022-10-06T00:02:06.340Z,14.54
2022-10-06T00:03:06.321Z,14.52
2022-10-06T00:04:06.368Z,14.49
2022-10-06T00:05:06.300Z,14.47
2022-10-06T00:06:06.397Z,14.47
2022-10-06T00:07:06.412Z,14.46
2022-10-06T00:08:09.965Z,14.38
2022-10-06T00:09:06.242Z,14.32
2022-10-06T00:10:06.272Z,14.34
2022-10-06T00:11:06.228Z,14.32
2022-10-06T00:12:06.234Z,14.32
2022-10-06T00:13:06.192Z,14.37
2022-10-06T00:14:06.212Z,14.34
2022-10-06T00:15:06.206Z,14.32
2022-10-06T00:16:06.319Z,14.31
2022-10-06T00:17:06.155Z,14.31
2022-10-06T00:18:06.240Z,14.29
2022-10-06T00:19:06.238Z,14.28
2022-10-06T00:20:06.116Z,14.29
2022-10-06T00:21:06.107Z,14.28
2022-10-06T00:22:06.109Z,14.27
2022-10-06T00:23:06.094Z,14.25
2022-10-06T00:24:06.142Z,14.27
2022-10-06T00:25:06.103Z,14.24
2022-10-06T00:26:06.083Z,14.25
2022-10-06T00:27:06.066Z,14.27
2022-10-06T00:28:06.059Z,14.25
2022-10-06T00:29:06.111Z,14.25
2022-10-06T00:30:06.008Z,14.25
2022-10-06T00:31:06.029Z,14.25
2022-10-06T00:32:05.998Z,14.27
2022-10-06T00:33:06.039Z,14.29
2022-10-06T00:34:05.968Z,14.27
2022-10-06T00:35:06.010Z,14.27
2022-10-06T00:36:06.068Z,14.28
2022-10-06T00:37:05.937Z,14.27
2022-10-06T00:38:05.981Z,14.24
2022-10-06T00:39:05.953Z,14.25
2022-10-06T00:40:05.926Z,14.21
2022-10-06T00:41:05.889Z,14.19
2022-10-06T00:42:05.929Z,14.19
2022-10-06T00:43:05.858Z,14.14
2022-10-06T00:44:05.853Z,14.19
2022-10-06T00:45:05.850Z,14.21
2022-10-06T00:46:06.674Z,14.21
2022-10-06T00:47:05.836Z,14.21
2022-10-06T00:48:05.851Z,14.27
2022-10-06T00:49:05.823Z,14.25
2022-10-06T00:50:05.846Z,14.25
2022-10-06T00:51:05.786Z,14.29
2022-10-06T00:52:05.834Z,14.32
2022-10-06T00:53:05.790Z,14.31
2022-10-06T00:54:05.782Z,14.29
2022-10-06T00:55:05.771Z,14.34
2022-10-06T00:56:05.807Z,14.34
2022-10-06T00:57:05.701Z,14.38
2022-10-06T00:58:05.773Z,14.38
2022-10-06T00:59:05.685Z,14.39
2022-10-06T01:00:05.682Z,14.44
2022-10-06T01:01:05.710Z,14.49
2022-10-06T01:02:05.663Z,14.50
2022-10-06T01:03:05.731Z,14.52
2022-10-06T01:04:05.735Z,14.54
2022-10-06T01:05:05.652Z,14.57
2022-10-06T01:06:05.971Z,14.64
2022-10-06T01:07:05.636Z,14.69
2022-10-06T01:08:05.607Z,14.69
2022-10-06T01:09:05.593Z,14.71
2022-10-06T01:10:05.645Z,14.72
2022-10-06T01:11:05.565Z,14.75
2022-10-06T01:12:05.546Z,14.80
2022-10-06T01:13:05.554Z,14.84
2022-10-06T01:14:05.514Z,14.84
2022-10-06T01:15:05.742Z,14.83
2022-10-06T01:16:05.606Z,14.84
2022-10-06T01:17:05.498Z,14.84
2022-10-06T01:18:05.496Z,14.86
2022-10-06T01:19:05.471Z,14.86
2022-10-06T01:20:05.466Z,14.86
2022-10-06T01:21:05.465Z,14.86
2022-10-06T01:22:05.466Z,14.86
2022-10-06T01:23:05.416Z,14.86
2022-10-06T01:24:05.449Z,14.86
2022-10-06T01:25:05.431Z,14.87
2022-10-06T01:26:05.391Z,14.88
2022-10-06T01:27:05.368Z,14.87
2022-10-06T01:28:05.442Z,14.88
2022-10-06T01:29:05.380Z,14.88
2022-10-06T01:30:05.354Z,14.93
2022-10-06T01:31:05.369Z,14.95
2022-10-06T01:32:05.338Z,15.01
2022-10-06T01:33:05.758Z,15.09
2022-10-06T01:34:05.627Z,15.23
2022-10-06T01:35:05.279Z,15.30
2022-10-06T01:36:05.439Z,15.31
2022-10-06T01:37:05.274Z,15.48
2022-10-06T01:38:05.248Z,15.64
2022-10-06T01:39:05.253Z,15.79
2022-10-06T01:40:05.420Z,16.33
2022-10-06T01:41:05.348Z,16.53
2022-10-06T01:42:05.222Z,16.62
2022-10-06T01:43:05.171Z,16.73
2022-10-06T01:44:05.188Z,16.75
2022-10-06T01:45:05.172Z,16.75
2022-10-06T01:46:05.227Z,16.73
2022-10-06T01:47:05.146Z,16.70
2022-10-06T01:48:05.141Z,16.68
2022-10-06T01:49:05.128Z,16.63
2022-10-06T01:50:05.104Z,16.59
2022-10-06T01:51:05.137Z,16.59
2022-10-06T01:52:05.119Z,16.56
2022-10-06T01:53:05.052Z,16.52
2022-10-06T01:54:05.063Z,16.50
2022-10-06T01:55:05.034Z,16.49
2022-10-06T01:56:05.025Z,16.45
2022-10-06T01:57:05.070Z,16.42
2022-10-06T01:58:05.019Z,16.41
2022-10-06T01:59:05.052Z,16.38
2022-10-06T02:00:04.987Z,16.35
2022-10-06T02:01:05.022Z,16.33
2022-10-06T02:02:05.060Z,16.30
2022-10-06T02:03:04.948Z,16.23
2022-10-06T02:04:04.956Z,16.22
2022-10-06T02:05:04.930Z,16.18
2022-10-06T02:06:04.976Z,16.15
2022-10-06T02:07:04.925Z,16.14
2022-10-06T02:08:04.938Z,16.11
2022-10-06T02:09:04.895Z,16.07
2022-10-06T02:10:04.887Z,16.04
2022-10-06T02:11:04.856Z,16.01
2022-10-06T02:12:04.839Z,15.97
2022-10-06T02:13:04.851Z,15.94
2022-10-06T02:14:04.846Z,15.93
2022-10-06T02:15:04.856Z,15.88
2022-10-06T02:16:04.836Z,15.86
2022-10-06T02:17:04.786Z,15.82
2022-10-06T02:18:04.790Z,15.79
2022-10-06T02:19:04.773Z,15.76
2022-10-06T02:20:04.822Z,15.72
2022-10-06T02:21:04.746Z,15.70
2022-10-06T02:22:04.741Z,15.68
2022-10-06T02:23:04.730Z,15.68
2022-10-06T02:24:04.699Z,15.66
2022-10-06T02:25:04.693Z,15.64
2022-10-06T02:26:04.702Z,15.61
2022-10-06T02:27:04.669Z,15.59
2022-10-06T02:28:04.719Z,15.56
2022-10-06T02:29:04.648Z,15.56
2022-10-06T02:30:04.631Z,15.54
2022-10-06T02:31:04.698Z,15.54
2022-10-06T02:32:04.629Z,15.52
2022-10-06T02:33:04.630Z,15.52
2022-10-06T02:34:04.582Z,15.51
2022-10-06T02:35:04.581Z,15.49
2022-10-06T02:36:04.602Z,15.46
2022-10-06T02:37:04.605Z,15.46
2022-10-06T02:38:04.561Z,15.42
2022-10-06T02:39:04.537Z,15.43
2022-10-06T02:40:04.514Z,15.45
2022-10-06T02:41:04.541Z,15.46
2022-10-06T02:42:04.498Z,15.46
2022-10-06T02:43:04.486Z,15.45
2022-10-06T02:44:04.563Z,15.46
2022-10-06T02:45:04.464Z,15.51
2022-10-06T02:46:04.490Z,15.51
2022-10-06T02:47:04.435Z,15.51
2022-10-06T02:48:04.421Z,15.51
2022-10-06T02:49:04.417Z,15.49
2022-10-06T02:50:04.434Z,15.48
2022-10-06T02:51:04.389Z,15.48
2022-10-06T02:52:04.414Z,15.46
2022-10-06T02:53:04.355Z,15.45
2022-10-06T02:54:04.352Z,15.43
2022-10-06T02:55:04.355Z,15.39
2022-10-06T02:56:04.357Z,15.41
2022-10-06T02:57:04.313Z,15.39
2022-10-06T02:58:04.361Z,15.38
2022-10-06T02:59:04.354Z,15.36
2022-10-06T03:00:04.288Z,15.31
2022-10-06T03:01:04.277Z,15.27
2022-10-06T03:02:04.348Z,15.23
2022-10-06T03:03:04.257Z,15.17
2022-10-06T03:04:04.234Z,15.13
2022-10-06T03:05:04.218Z,15.08
2022-10-06T03:06:04.213Z,15.05
2022-10-06T03:07:04.207Z,15.03
2022-10-06T03:08:04.318Z,15.01
2022-10-06T03:09:04.209Z,14.98
2022-10-06T03:10:04.159Z,14.98
2022-10-06T03:11:04.139Z,14.95
2022-10-06T03:12:04.137Z,14.94
2022-10-06T03:13:04.133Z,14.93
2022-10-06T03:14:04.140Z,14.90
2022-10-06T03:15:04.092Z,14.88
2022-10-06T03:16:04.178Z,14.87
2022-10-06T03:17:04.076Z,14.86
2022-10-06T03:18:04.112Z,14.86
2022-10-06T03:19:04.091Z,14.87
2022-10-06T03:20:04.082Z,14.87
2022-10-06T03:21:04.020Z,14.88
2022-10-06T03:22:04.062Z,14.87
2022-10-06T03:23:04.003Z,14.84
2022-10-06T03:24:04.011Z,14.84
2022-10-06T03:25:03.980Z,14.83
2022-10-06T03:26:03.971Z,14.84
2022-10-06T03:27:04.053Z,14.83
2022-10-06T03:28:04.062Z,14.83
2022-10-06T03:29:07.918Z,14.83
2022-10-06T03:30:04.987Z,14.83
2022-10-06T03:31:03.999Z,14.84
2022-10-06T03:32:03.893Z,14.83
2022-10-06T03:33:03.893Z,14.83
2022-10-06T03:34:03.892Z,14.86
2022-10-06T03:35:03.994Z,14.87
2022-10-06T03:36:03.852Z,14.87
2022-10-06T03:37:03.836Z,14.87
2022-10-06T03:38:03.865Z,14.87
2022-10-06T03:39:03.813Z,14.87
2022-10-06T03:40:03.809Z,14.84
2022-10-06T03:41:03.804Z,14.80
2022-10-06T03:42:03.775Z,14.72
2022-10-06T03:43:03.765Z,14.71
2022-10-06T03:44:03.764Z,14.67
2022-10-06T03:45:03.746Z,14.67
2022-10-06T03:46:03.831Z,14.69
2022-10-06T03:47:03.785Z,14.72
2022-10-06T03:48:03.707Z,14.72
2022-10-06T03:49:03.756Z,14.72
2022-10-06T03:50:03.686Z,14.72
2022-10-06T03:51:03.698Z,14.71
2022-10-06T03:52:03.687Z,14.72
2022-10-06T03:53:03.664Z,14.69
2022-10-06T03:54:03.649Z,14.68
2022-10-06T03:55:03.636Z,14.62
2022-10-06T03:56:03.649Z,14.60
2022-10-06T03:57:03.607Z,14.57
2022-10-06T03:58:03.657Z,14.56
2022-10-06T03:59:03.589Z,14.54
2022-10-06T04:00:03.845Z,14.53
2022-10-06T04:01:03.654Z,14.50
2022-10-06T04:02:03.699Z,14.47
2022-10-06T04:03:03.540Z,14.47
2022-10-06T04:04:04.420Z,14.44
2022-10-06T04:05:03.670Z,14.39
2022-10-06T04:06:03.699Z,14.38
2022-10-06T04:07:03.502Z,14.37
2022-10-06T04:08:03.500Z,14.35
2022-10-06T04:09:03.475Z,14.34
2022-10-06T04:10:03.640Z,14.37
2022-10-06T04:11:03.614Z,14.37
2022-10-06T04:12:03.450Z,14.39
2022-10-06T04:13:03.450Z,14.38
2022-10-06T04:14:03.413Z,14.38
2022-10-06T04:15:03.401Z,14.42
2022-10-06T04:16:03.445Z,14.42
2022-10-06T04:17:03.382Z,14.42
2022-10-06T04:18:03.372Z,14.39
2022-10-06T04:19:03.363Z,14.38
2022-10-06T04:20:03.382Z,14.38
2022-10-06T04:21:03.383Z,14.38
2022-10-06T04:22:03.322Z,14.39
2022-10-06T04:23:03.343Z,14.42
2022-10-06T04:24:03.320Z,14.42
2022-10-06T04:25:03.295Z,14.44
2022-10-06T04:26:03.283Z,14.43
2022-10-06T04:27:03.296Z,14.42
2022-10-06T04:28:03.320Z,14.38
2022-10-06T04:29:03.250Z,14.34
2022-10-06T04:30:03.238Z,14.24
2022-10-06T04:31:03.214Z,14.19
2022-10-06T04:32:03.309Z,14.13
2022-10-06T04:33:03.220Z,14.09
2022-10-06T04:34:03.216Z,14.04
2022-10-06T04:35:03.176Z,14.01
2022-10-06T04:36:03.164Z,13.96
2022-10-06T04:37:03.150Z,13.89
2022-10-06T04:38:03.144Z,13.87
2022-10-06T04:39:03.166Z,13.81
2022-10-06T04:40:03.127Z,13.73
2022-10-06T04:41:03.135Z,13.71
2022-10-06T04:42:03.097Z,13.70
2022-10-06T04:43:03.101Z,13.63
2022-10-06T04:44:03.077Z,13.61
2022-10-06T04:45:04.039Z,13.59
2022-10-06T04:46:13.262Z,13.56
2022-10-06T04:47:04.120Z,13.51
2022-10-06T04:48:03.020Z,13.44
2022-10-06T04:49:03.028Z,13.38
2022-10-06T04:50:03.049Z,13.33
2022-10-06T04:51:03.031Z,13.29
2022-10-06T04:52:03.003Z,13.27
2022-10-06T04:53:02.970Z,13.33
2022-10-06T04:54:02.961Z,13.41
2022-10-06T04:55:03.470Z,13.43
2022-10-06T04:56:02.940Z,13.54
2022-10-06T04:57:03.014Z,13.56
2022-10-06T04:58:02.911Z,13.55
2022-10-06T04:59:03.013Z,13.47
2022-10-06T05:00:06.107Z,13.41
2022-10-06T05:01:03.933Z,13.40
2022-10-06T05:02:02.894Z,13.36
2022-10-06T05:03:02.898Z,13.30
2022-10-06T05:04:03.475Z,13.25
2022-10-06T05:05:03.103Z,13.21
2022-10-06T05:06:02.843Z,13.17
2022-10-06T05:07:02.831Z,13.09
2022-10-06T05:08:02.846Z,13.03
2022-10-06T05:09:02.923Z,12.99
2022-10-06T05:10:02.871Z,12.93
2022-10-06T05:11:02.812Z,12.88
2022-10-06T05:12:02.763Z,12.79
2022-10-06T05:13:02.893Z,12.74
2022-10-06T05:14:02.867Z,12.71
2022-10-06T05:15:03.219Z,12.67
2022-10-06T05:16:02.755Z,12.63
2022-10-06T05:17:02.715Z,12.57
2022-10-06T05:18:02.696Z,12.49
2022-10-06T05:19:02.684Z,12.42
2022-10-06T05:20:02.721Z,12.44
2022-10-06T05:21:06.491Z,12.42
2022-10-06T05:22:02.706Z,12.41
2022-10-06T05:23:02.645Z,12.34
2022-10-06T05:24:02.679Z,12.33
2022-10-06T05:25:02.637Z,12.46
2022-10-06T05:26:02.631Z,12.60
2022-10-06T05:27:02.615Z,12.64
2022-10-06T05:28:02.682Z,12.66
2022-10-06T05:29:02.574Z,12.69
2022-10-06T05:30:02.607Z,12.71
2022-10-06T05:31:02.545Z,12.75
2022-10-06T05:32:02.775Z,12.92
2022-10-06T05:33:02.536Z,13.06
2022-10-06T05:34:02.546Z,13.17
2022-10-06T05:35:02.513Z,13.24
2022-10-06T05:36:02.488Z,13.29
2022-10-06T05:37:02.525Z,13.32
2022-10-06T05:38:02.470Z,13.37
2022-10-06T05:39:02.475Z,13.38
2022-10-06T05:40:02.437Z,13.43
2022-10-06T05:41:02.441Z,13.43
2022-10-06T05:42:02.417Z,13.46
2022-10-06T05:43:02.596Z,13.46
2022-10-06T05:44:02.399Z,13.44
2022-10-06T05:45:02.390Z,13.38
2022-10-06T05:46:02.405Z,13.37
2022-10-06T05:47:02.388Z,13.32
2022-10-06T05:48:02.379Z,13.32
2022-10-06T05:49:02.338Z,13.29
2022-10-06T05:50:02.325Z,13.27
2022-10-06T05:51:02.310Z,13.30
2022-10-06T05:52:02.340Z,13.32
2022-10-06T05:53:02.292Z,13.30
2022-10-06T05:54:02.551Z,13.36
2022-10-06T05:55:02.333Z,13.40
2022-10-06T05:56:03.031Z,13.41
2022-10-06T05:57:02.311Z,13.38
2022-10-06T05:58:02.353Z,13.36
2022-10-06T05:59:02.269Z,13.32
2022-10-06T06:00:02.361Z,13.27
2022-10-06T06:01:02.249Z,13.21
2022-10-06T06:02:02.326Z,13.17
2022-10-06T06:03:02.246Z,13.15
2022-10-06T06:04:02.166Z,13.11
2022-10-06T06:05:02.151Z,13.07
2022-10-06T06:06:02.225Z,13.04
2022-10-06T06:07:02.134Z,12.99
2022-10-06T06:08:02.133Z,12.95
2022-10-06T06:09:02.111Z,12.92
2022-10-06T06:10:02.100Z,12.89
2022-10-06T06:11:02.094Z,12.88
2022-10-06T06:12:02.086Z,12.85
2022-10-06T06:13:02.064Z,12.79
2022-10-06T06:14:02.045Z,12.71
2022-10-06T06:15:02.039Z,12.59
2022-10-06T06:16:02.035Z,12.51
2022-10-06T06:17:02.065Z,12.48
2022-10-06T06:18:02.006Z,12.42
2022-10-06T06:19:02.005Z,12.41
2022-10-06T06:20:01.989Z,12.60
2022-10-06T06:21:01.976Z,12.75
2022-10-06T06:22:01.955Z,12.87
2022-10-06T06:23:01.966Z,12.93
2022-10-06T06:24:01.952Z,12.93
2022-10-06T06:25:02.096Z,12.93
2022-10-06T06:26:02.656Z,12.89
2022-10-06T06:27:01.914Z,12.95
2022-10-06T06:28:01.971Z,12.96
2022-10-06T06:29:01.907Z,12.97
2022-10-06T06:30:01.878Z,13.02
2022-10-06T06:31:01.924Z,13.06
2022-10-06T06:32:01.906Z,13.12
2022-10-06T06:33:01.879Z,13.15
2022-10-06T06:34:01.856Z,13.15
2022-10-06T06:35:01.818Z,13.12
2022-10-06T06:36:01.820Z,13.11
2022-10-06T06:37:07.523Z,13.09
2022-10-06T06:38:02.799Z,13.07
2022-10-06T06:39:01.804Z,13.09
2022-10-06T06:40:01.791Z,13.07
2022-10-06T06:41:01.737Z,13.11
2022-10-06T06:42:01.810Z,13.14
2022-10-06T06:43:01.718Z,13.14
2022-10-06T06:44:01.699Z,13.11
2022-10-06T06:45:01.702Z,13.11
2022-10-06T06:46:01.731Z,13.12
2022-10-06T06:47:01.679Z,13.14
2022-10-06T06:48:01.661Z,13.15
2022-10-06T06:49:01.710Z,13.21
2022-10-06T06:50:01.651Z,13.25
2022-10-06T06:51:01.641Z,13.33
2022-10-06T06:52:01.640Z,13.40
2022-10-06T06:53:01.610Z,13.44
2022-10-06T06:54:01.593Z,13.47
2022-10-06T06:55:01.594Z,13.47
2022-10-06T06:56:01.562Z,13.51
2022-10-06T06:57:01.604Z,13.49
2022-10-06T06:58:01.573Z,13.52
2022-10-06T06:59:01.543Z,13.55
2022-10-06T07:00:01.548Z,13.54
2022-10-06T07:01:01.534Z,13.54
2022-10-06T07:02:01.550Z,13.52
2022-10-06T07:03:02.217Z,13.52
2022-10-06T07:04:01.512Z,13.54
2022-10-06T07:05:01.503Z,13.55
2022-10-06T07:06:01.538Z,13.56
2022-10-06T07:07:01.505Z,13.59
2022-10-06T07:08:01.484Z,13.58
2022-10-06T07:09:01.463Z,13.59
2022-10-06T07:10:01.714Z,13.69
2022-10-06T07:11:01.394Z,13.76
2022-10-06T07:12:01.421Z,13.83
2022-10-06T07:13:01.382Z,13.89
2022-10-06T07:14:01.565Z,13.94
2022-10-06T07:15:01.469Z,13.99
2022-10-06T07:16:01.537Z,14.04
2022-10-06T07:17:01.475Z,14.09
2022-10-06T07:18:01.316Z,14.10
2022-10-06T07:19:01.327Z,14.14
2022-10-06T07:20:01.317Z,14.17
2022-10-06T07:21:01.318Z,14.19
2022-10-06T07:22:01.276Z,14.20
2022-10-06T07:23:01.265Z,14.24
2022-10-06T07:24:01.291Z,14.24
2022-10-06T07:25:01.275Z,14.27
2022-10-06T07:26:01.257Z,14.28
2022-10-06T07:27:01.277Z,14.27
2022-10-06T07:28:01.266Z,14.29
2022-10-06T07:29:01.226Z,14.31
2022-10-06T07:30:01.198Z,14.34
2022-10-06T07:31:01.280Z,14.34
2022-10-06T07:32:01.230Z,14.37
2022-10-06T07:33:01.227Z,14.35
2022-10-06T07:34:01.158Z,14.39
2022-10-06T07:35:01.170Z,14.42
2022-10-06T07:36:01.139Z,14.43
2022-10-06T07:37:04.142Z,14.49
2022-10-06T07:38:02.146Z,14.49
2022-10-06T07:39:01.111Z,14.53
2022-10-06T07:40:01.089Z,14.52
2022-10-06T07:41:18.284Z,14.53
2022-10-06T07:42:02.090Z,14.53
2022-10-06T07:43:01.074Z,14.53
2022-10-06T07:44:05.821Z,14.57
2022-10-06T07:45:02.061Z,14.56
2022-10-06T07:46:01.089Z,14.57
2022-10-06T07:47:01.010Z,14.62
2022-10-06T07:48:01.012Z,14.67
2022-10-06T07:49:00.986Z,14.72
2022-10-06T07:50:01.021Z,14.83
2022-10-06T07:51:00.986Z,14.90
2022-10-06T07:52:00.992Z,14.91
2022-10-06T07:53:00.942Z,14.90
2022-10-06T07:54:00.951Z,14.74
2022-10-06T07:55:00.955Z,14.71
2022-10-06T07:56:00.935Z,14.69
2022-10-06T07:57:00.903Z,14.68
2022-10-06T07:58:00.922Z,14.61
2022-10-06T07:59:00.894Z,14.61
2022-10-06T08:00:03.265Z,14.67
2022-10-06T08:01:00.865Z,14.72
2022-10-06T08:02:00.905Z,14.72
2022-10-06T08:03:00.875Z,14.80
2022-10-06T08:04:00.805Z,14.83
2022-10-06T08:05:00.805Z,14.87
2022-10-06T08:06:00.830Z,14.90
2022-10-06T08:07:00.795Z,15.02
2022-10-06T08:08:00.796Z,15.03
2022-10-06T08:09:00.774Z,14.90
2022-10-06T08:10:00.758Z,14.88
2022-10-06T08:11:01.960Z,14.93
2022-10-06T08:12:00.750Z,14.83
2022-10-06T08:13:00.717Z,14.87
2022-10-06T08:14:00.696Z,14.99
2022-10-06T08:15:04.524Z,15.02
2022-10-06T08:16:01.777Z,15.02
2022-10-06T08:17:00.687Z,14.99
2022-10-06T08:18:00.680Z,15.06
2022-10-06T08:19:00.658Z,15.05
2022-10-06T08:20:00.628Z,15.08
2022-10-06T08:21:00.628Z,15.19
2022-10-06T08:22:04.639Z,15.13
2022-10-06T08:23:00.628Z,15.13
2022-10-06T08:24:00.590Z,15.21
2022-10-06T08:25:06.227Z,15.19
2022-10-06T08:26:01.594Z,15.21
2022-10-06T08:27:00.571Z,15.24
2022-10-06T08:28:00.606Z,15.24
2022-10-06T08:29:00.525Z,15.15
2022-10-06T08:30:00.520Z,15.13
2022-10-06T08:31:00.534Z,15.23
2022-10-06T08:32:00.536Z,15.19
2022-10-06T08:33:00.491Z,15.19
2022-10-06T08:34:00.537Z,15.23
2022-10-06T08:35:00.499Z,15.33
2022-10-06T08:36:00.441Z,15.38
2022-10-06T08:37:19.302Z,15.45
2022-10-06T08:38:01.574Z,15.46
2022-10-06T08:39:00.434Z,15.45
2022-10-06T08:40:00.472Z,15.38
2022-10-06T08:41:00.393Z,15.46
2022-10-06T08:42:00.396Z,15.38
2022-10-06T08:43:00.390Z,15.42
2022-10-06T08:44:00.359Z,15.49
2022-10-06T08:45:00.338Z,15.52
2022-10-06T08:46:00.357Z,15.51
2022-10-06T08:47:00.323Z,15.39
2022-10-06T08:48:00.303Z,15.39
2022-10-06T08:49:00.427Z,15.45
2022-10-06T08:50:00.457Z,15.48
2022-10-06T08:51:00.306Z,15.48
2022-10-06T08:52:00.263Z,15.57
2022-10-06T08:53:00.247Z,15.64
2022-10-06T08:54:00.255Z,15.74
2022-10-06T08:55:00.244Z,15.86
2022-10-06T08:56:00.314Z,15.74
2022-10-06T08:57:00.312Z,15.76
2022-10-06T08:58:00.273Z,15.81
2022-10-06T08:59:00.213Z,15.78
2022-10-06T09:00:01.127Z,15.70
2022-10-06T09:01:00.186Z,15.74
2022-10-06T09:02:00.196Z,15.82
2022-10-06T09:03:00.160Z,15.85
2022-10-06T09:04:00.117Z,15.93
2022-10-06T09:05:00.114Z,15.93
2022-10-06T09:06:00.100Z,15.81
2022-10-06T09:07:00.093Z,16.00
2022-10-06T09:08:00.121Z,16.15
2022-10-06T09:09:00.061Z,16.25
2022-10-06T09:10:00.051Z,16.30
2022-10-06T09:11:00.084Z,16.11
2022-10-06T09:12:00.025Z,16.25
2022-10-06T09:13:00.009Z,16.25
2022-10-06T09:14:00.051Z,16.20
2022-10-06T09:15:00.009Z,16.14
2022-10-06T09:16:00.078Z,16.11
2022-10-06T09:16:59.965Z,16.11
2022-10-06T09:18:00.000Z,16.15
2022-10-06T09:19:08.627Z,16.26
2022-10-06T09:20:00.979Z,16.37
2022-10-06T09:20:59.934Z,16.30
2022-10-06T09:22:00.087Z,16.31
2022-10-06T09:22:59.903Z,16.31
2022-10-06T09:23:59.898Z,16.41
2022-10-06T09:24:59.873Z,16.42
2022-10-06T09:25:59.883Z,16.50
2022-10-06T09:26:59.866Z,16.50
2022-10-06T09:27:59.912Z,16.40
2022-10-06T09:28:59.846Z,16.40
2022-10-06T09:29:59.814Z,16.40
2022-10-06T09:31:01.080Z,16.45
2022-10-06T09:31:59.813Z,16.52
2022-10-06T09:33:00.961Z,16.52
2022-10-06T09:33:59.856Z,16.58
2022-10-06T09:34:59.850Z,16.59
2022-10-06T09:35:59.854Z,16.55
2022-10-06T09:37:01.531Z,16.55
2022-10-06T09:38:02.245Z,16.40
2022-10-06T09:38:59.756Z,16.38
2022-10-06T09:39:59.806Z,16.49
2022-10-06T09:40:59.864Z,16.55
2022-10-06T09:41:59.727Z,16.48
2022-10-06T09:42:59.699Z,16.56
2022-10-06T09:43:59.678Z,16.49
2022-10-06T09:44:59.665Z,16.30
2022-10-06T09:45:59.709Z,16.15
2022-10-06T09:46:59.663Z,16.14
2022-10-06T09:47:59.657Z,16.14
2022-10-06T09:48:59.610Z,16.30
2022-10-06T09:49:59.620Z,16.37
2022-10-06T09:50:59.616Z,16.55
2022-10-06T09:51:59.616Z,16.63
2022-10-06T09:52:59.581Z,16.62
2022-10-06T09:53:59.577Z,16.55
2022-10-06T09:54:59.560Z,16.60
2022-10-06T09:55:59.520Z,16.59
2022-10-06T09:56:59.528Z,16.44
2022-10-06T09:57:59.509Z,16.50
2022-10-06T09:58:59.499Z,16.52
2022-10-06T09:59:59.798Z,16.50
2022-10-06T10:00:59.544Z,16.48
2022-10-06T10:01:59.474Z,16.37
2022-10-06T10:02:59.546Z,16.41
2022-10-06T10:04:19.499Z,16.49
2022-10-06T10:05:00.467Z,16.56
2022-10-06T10:05:59.452Z,16.68
2022-10-06T10:06:59.416Z,16.67
2022-10-06T10:07:59.391Z,16.56
2022-10-06T10:08:59.405Z,16.53
2022-10-06T10:09:59.547Z,16.68
2022-10-06T10:10:59.399Z,16.71
2022-10-06T10:11:59.345Z,16.65
2022-10-06T10:12:59.373Z,16.74
2022-10-06T10:13:59.312Z,16.74
2022-10-06T10:14:59.305Z,16.78
2022-10-06T10:15:59.378Z,16.65
2022-10-06T10:16:59.284Z,16.59
2022-10-06T10:17:59.264Z,16.56
2022-10-06T10:18:59.273Z,16.56
2022-10-06T10:19:59.564Z,16.56
2022-10-06T10:20:59.275Z,16.58
2022-10-06T10:21:59.304Z,16.56
2022-10-06T10:22:59.965Z,16.52
2022-10-06T10:24:07.765Z,16.55
2022-10-06T10:24:59.182Z,16.65
2022-10-06T10:25:59.172Z,16.80
2022-10-06T10:26:59.286Z,16.80
2022-10-06T10:27:59.233Z,16.80
2022-10-06T10:28:59.155Z,16.96
2022-10-06T10:29:59.400Z,16.90
2022-10-06T10:30:59.157Z,16.59
2022-10-06T10:31:59.174Z,16.58
2022-10-06T10:32:59.135Z,16.70
2022-10-06T10:34:12.025Z,16.80
2022-10-06T10:35:00.344Z,16.83
2022-10-06T10:35:59.075Z,16.88
2022-10-06T10:36:59.075Z,16.98
2022-10-06T10:37:59.038Z,17.10
2022-10-06T10:38:59.077Z,17.32
2022-10-06T10:39:59.025Z,17.40
2022-10-06T10:40:59.016Z,17.11
2022-10-06T10:41:59.016Z,16.96
2022-10-06T10:42:58.985Z,16.92
2022-10-06T10:44:03.350Z,16.93
2022-10-06T10:45:00.177Z,16.96
2022-10-06T10:45:58.956Z,17.11
2022-10-06T10:46:59.025Z,17.10
2022-10-06T10:47:58.929Z,17.07
2022-10-06T10:48:58.930Z,17.20
2022-10-06T10:49:58.930Z,17.17
2022-10-06T10:50:58.929Z,17.33
2022-10-06T10:51:58.888Z,17.17
2022-10-06T10:52:58.881Z,17.06
2022-10-06T10:53:58.879Z,17.11
2022-10-06T10:54:59.406Z,16.96
2022-10-06T10:55:58.839Z,17.00
2022-10-06T10:56:58.851Z,16.98
2022-10-06T10:57:58.819Z,16.99
2022-10-06T10:58:58.823Z,17.06
2022-10-06T10:59:58.792Z,17.10
2022-10-06T11:00:58.821Z,17.17
2022-10-06T11:01:58.793Z,17.20
2022-10-06T11:02:58.782Z,17.20
2022-10-06T11:03:58.762Z,17.33
2022-10-06T11:04:59.181Z,17.44
2022-10-06T11:05:58.742Z,17.53
2022-10-06T11:06:58.714Z,17.46
2022-10-06T11:07:58.910Z,17.32
2022-10-06T11:08:58.693Z,17.36
2022-10-06T11:09:58.683Z,17.47
2022-10-06T11:10:58.682Z,17.43
2022-10-06T11:11:58.652Z,17.36
2022-10-06T11:12:58.656Z,17.23
2022-10-06T11:13:58.653Z,17.23
2022-10-06T11:14:58.938Z,17.14
2022-10-06T11:15:58.688Z,17.17
2022-10-06T11:16:58.608Z,17.11
2022-10-06T11:17:58.586Z,17.11
2022-10-06T11:18:58.574Z,17.14
2022-10-06T11:19:58.627Z,17.20
2022-10-06T11:20:58.554Z,17.22
2022-10-06T11:21:58.563Z,17.25
2022-10-06T11:22:58.528Z,17.23
2022-10-06T11:23:58.563Z,17.36
2022-10-06T11:24:58.851Z,17.54
2022-10-06T11:25:58.549Z,17.78
2022-10-06T11:26:58.498Z,17.92
2022-10-06T11:27:58.567Z,17.97
2022-10-06T11:28:58.500Z,17.87
2022-10-06T11:29:58.745Z,17.66
2022-10-06T11:30:58.439Z,17.55
2022-10-06T11:31:58.521Z,17.55
2022-10-06T11:32:58.398Z,17.54
2022-10-06T11:33:58.404Z,17.53
2022-10-06T11:34:58.508Z,17.44
2022-10-06T11:35:58.399Z,17.47
2022-10-06T11:36:58.373Z,17.63
2022-10-06T11:37:58.390Z,17.67
2022-10-06T11:38:58.377Z,17.62
2022-10-06T11:39:58.572Z,17.73
2022-10-06T11:40:58.328Z,17.81
2022-10-06T11:41:58.311Z,17.87
2022-10-06T11:42:58.299Z,17.85
2022-10-06T11:43:58.314Z,17.84
2022-10-06T11:44:58.486Z,17.82
2022-10-06T11:45:58.331Z,17.70
2022-10-06T11:46:58.261Z,17.78
2022-10-06T11:47:58.242Z,17.79
2022-10-06T11:48:58.231Z,17.82
2022-10-06T11:49:58.273Z,17.76
2022-10-06T11:50:58.203Z,17.88
2022-10-06T11:52:00.107Z,17.99
2022-10-06T11:52:58.195Z,17.99
2022-10-06T11:53:58.184Z,18.04
2022-10-06T11:54:58.424Z,18.00
2022-10-06T11:55:58.143Z,17.97
2022-10-06T11:56:58.143Z,18.04
2022-10-06T11:57:58.126Z,17.99
2022-10-06T11:58:58.137Z,17.92
2022-10-06T11:59:58.129Z,17.94
2022-10-06T12:00:58.115Z,17.87
2022-10-06T12:01:58.396Z,17.87
2022-10-06T12:02:58.185Z,17.88
2022-10-06T12:03:58.150Z,17.89
2022-10-06T12:04:58.181Z,17.84
2022-10-06T12:05:58.093Z,17.66
2022-10-06T12:06:58.027Z,17.67
2022-10-06T12:07:58.016Z,17.69
2022-10-06T12:08:57.997Z,17.71
2022-10-06T12:09:57.987Z,17.71
2022-10-06T12:10:57.966Z,17.79
2022-10-06T12:11:58.001Z,17.87
2022-10-06T12:13:06.635Z,17.79
2022-10-06T12:15:06.543Z,17.73
2022-10-06T12:17:12.831Z,17.73
2022-10-06T12:17:58.888Z,17.79
2022-10-06T12:18:57.891Z,17.85
2022-10-06T12:19:57.916Z,17.85
2022-10-06T12:20:57.860Z,17.74
2022-10-06T12:21:57.839Z,17.66
2022-10-06T12:22:57.879Z,17.71
2022-10-06T12:23:57.826Z,17.81
2022-10-06T12:24:58.131Z,17.88
2022-10-06T12:25:57.831Z,18.00
2022-10-06T12:26:57.804Z,18.06
2022-10-06T12:27:57.875Z,17.92
2022-10-06T12:28:57.761Z,17.95
2022-10-06T12:29:58.003Z,17.97
2022-10-06T12:30:57.792Z,18.10
2022-10-06T12:31:57.749Z,18.07
2022-10-06T12:32:57.735Z,17.99
2022-10-06T12:33:57.796Z,18.04
2022-10-06T12:34:58.121Z,18.10
2022-10-06T12:35:57.704Z,18.13
2022-10-06T12:36:57.833Z,18.18
2022-10-06T12:37:57.673Z,18.18
2022-10-06T12:38:57.662Z,18.22
2022-10-06T12:39:57.656Z,18.21
2022-10-06T12:40:57.628Z,18.13
2022-10-06T12:41:57.699Z,18.06
2022-10-06T12:42:57.609Z,18.06
2022-10-06T12:43:57.599Z,18.07
2022-10-06T12:44:57.873Z,18.06
2022-10-06T12:45:57.616Z,17.79
2022-10-06T12:46:57.566Z,17.73
2022-10-06T12:47:57.545Z,17.85
2022-10-06T12:48:57.585Z,17.94
2022-10-06T12:49:57.595Z,17.97
2022-10-06T12:50:57.539Z,17.94
2022-10-06T12:51:59.704Z,18.00
2022-10-06T12:52:57.511Z,18.12
2022-10-06T12:53:57.494Z,18.09